Time;durP1;ratioP1;P1;durP2;ratioP2;P2;SDS_P1;SDS_P2;PMS_P1;PMS_P2;Temp;Humidity;BMP_temperature;BMP_pressure;BME280_temperature;BME280_humidity;BME280_pressure;Samples;Min_cycle;Max_cycle;Signal;HPM_P1;HPM_P2
2022/01/14 00:00:09;;;;;;;34.95;13.98;;;;;;;0.79;75.69;102418.31;5004474;28;20445;-49
2022/01/14 00:02:36;;;;;;;40.25;16.10;;;;;;;0.77;75.87;102411.44;5000460;28;20058;-52
2022/01/14 00:05:03;;;;;;;35.90;14.90;;;;;;;0.77;75.85;102415.66;5006352;28;20049;-51
2022/01/14 00:07:29;;;;;;;32.67;13.00;;;;;;;0.76;75.25;102399.47;4997065;28;20045;-52
2022/01/14 00:09:56;;;;;;;32.92;12.77;;;;;;;0.75;76.22;102402.78;5002824;28;20522;-51
2022/01/14 00:12:27;;;;;;;33.53;13.57;;;;;;;0.73;76.23;102394.13;5005726;28;20045;-48
2022/01/14 00:15:01;;;;;;;33.58;14.52;;;;;;;0.75;75.65;102387.47;5004449;28;20057;-52
2022/01/14 00:17:28;;;;;;;44.60;17.75;;;;;;;0.77;76.27;102374.84;5009661;28;20070;-51
2022/01/14 00:19:55;;;;;;;34.83;14.95;;;;;;;0.78;76.17;102376.63;5005467;28;20096;-49
2022/01/14 00:22:25;;;;;;;36.55;14.95;;;;;;;0.79;76.64;102367.28;5003225;28;20046;-53
2022/01/14 00:33:16;;;;;;;29.95;13.05;;;;;;;0.73;76.00;102358.41;4986145;28;20112;-55
2022/01/14 00:35:43;;;;;;;28.52;13.15;;;;;;;0.72;75.97;102359.19;5003837;28;20107;-47
2022/01/14 00:38:11;;;;;;;28.75;11.88;;;;;;;0.72;76.21;102356.66;5003002;28;20058;-49
2022/01/14 00:40:38;;;;;;;24.85;11.00;;;;;;;0.72;75.87;102356.66;5001937;28;20510;-46
2022/01/14 00:43:05;;;;;;;26.73;12.65;;;;;;;0.72;76.17;102351.56;5003635;28;20053;-53
2022/01/14 00:45:32;;;;;;;25.95;12.50;;;;;;;0.73;77.10;102353.31;5003285;28;20877;-51
2022/01/14 00:48:00;;;;;;;24.08;12.05;;;;;;;0.74;76.89;102343.97;5007047;28;20560;-49
2022/01/14 00:50:26;;;;;;;26.88;13.18;;;;;;;0.71;76.69;102344.66;5000672;28;20050;-48
2022/01/14 00:52:53;;;;;;;30.52;13.38;;;;;;;0.69;76.50;102341.09;5005660;28;20584;-48
2022/01/14 00:55:40;;;;;;;28.40;12.45;;;;;;;0.67;76.29;102342.63;5004839;28;20057;-49
2022/01/14 01:00:53;;;;;;;30.73;13.68;;;;;;;0.63;76.17;102330.44;5002989;28;20057;-57
2022/01/14 01:03:19;;;;;;;27.83;11.90;;;;;;;0.62;76.22;102333.75;4999918;28;20050;-53
2022/01/14 01:05:46;;;;;;;29.02;12.77;;;;;;;0.60;75.90;102331.09;5001431;28;20057;-53
2022/01/14 01:08:19;;;;;;;29.25;13.00;;;;;;;0.60;76.62;102330.19;5002422;28;20050;-50
2022/01/14 01:10:49;;;;;;;29.17;12.82;;;;;;;0.58;76.87;102331.75;4998689;28;20111;-51
2022/01/14 01:13:23;;;;;;;32.88;13.20;;;;;;;0.57;76.42;102322.34;5006517;28;20054;-54
2022/01/14 01:15:50;;;;;;;33.17;13.65;;;;;;;0.55;76.08;102326.44;4999126;28;20046;-55
2022/01/14 01:18:18;;;;;;;39.92;14.15;;;;;;;0.53;76.80;102322.88;4997265;28;20461;-52
2022/01/14 01:20:45;;;;;;;32.47;13.35;;;;;;;0.50;76.12;102319.31;4997463;28;20054;-54
2022/01/14 01:23:12;;;;;;;35.28;13.90;;;;;;;0.48;76.82;102319.97;5004667;28;20111;-48
2022/01/14 01:25:44;;;;;;;36.90;14.20;;;;;;;0.47;76.94;102323.31;5003888;28;20054;-48
2022/01/14 01:28:11;;;;;;;31.58;15.05;;;;;;;0.43;77.03;102319.63;5003294;28;20473;-56
2022/01/14 01:30:50;;;;;;;37.33;14.98;;;;;;;0.42;76.49;102320.41;5006772;28;20049;-54
2022/01/14 01:33:18;;;;;;;34.95;14.80;;;;;;;0.41;76.71;102317.75;5000144;28;20522;-50
2022/01/14 01:35:46;;;;;;;30.60;13.85;;;;;;;0.40;76.67;102319.38;5003803;28;20054;-48
2022/01/14 01:38:17;;;;;;;33.88;13.50;;;;;;;0.40;76.17;102316.84;5005171;28;20446;-47
2022/01/14 01:40:46;;;;;;;26.63;13.23;;;;;;;0.38;76.25;102324.38;5003767;28;20050;-53
2022/01/14 01:43:13;;;;;;;27.67;11.82;;;;;;;0.36;77.07;102330.13;5006643;28;20103;-47
2022/01/14 01:45:41;;;;;;;31.33;13.23;;;;;;;0.36;76.90;102328.47;4987491;28;20069;-52
2022/01/14 01:48:08;;;;;;;24.08;12.05;;;;;;;0.33;76.77;102322.25;5004972;28;20913;-48
2022/01/14 01:50:36;;;;;;;35.00;12.30;;;;;;;0.28;76.37;102321.91;4997338;28;20116;-56
2022/01/14 01:53:04;;;;;;;29.25;11.93;;;;;;;0.25;76.15;102327.66;5007619;28;20053;-46
2022/01/14 01:55:31;;;;;;;33.95;12.75;;;;;;;0.20;76.20;102323.88;4998953;28;20096;-48
2022/01/14 01:57:58;;;;;;;36.03;15.07;;;;;;;0.17;76.18;102331.25;5002729;28;20065;-55
2022/01/14 02:00:28;;;;;;;34.28;14.00;;;;;;;0.15;76.65;102325.19;5001306;28;20096;-47
2022/01/14 02:02:57;;;;;;;39.58;14.65;;;;;;;0.12;76.76;102324.94;4999647;28;20099;-51
2022/01/14 02:05:24;;;;;;;36.85;14.80;;;;;;;0.12;76.68;102324.94;5003011;28;20049;-53
2022/01/14 02:07:51;;;;;;;32.22;13.10;;;;;;;0.12;76.77;102314.75;5001130;28;20046;-50
2022/01/14 02:10:17;;;;;;;27.88;13.85;;;;;;;0.12;76.29;102312.19;5003472;28;20111;-50
2022/01/14 02:12:49;;;;;;;32.58;12.95;;;;;;;0.12;77.01;102310.53;4999475;28;20054;-53
2022/01/14 02:18:28;;;;;;;40.53;15.25;;;;;;;0.12;76.75;102317.28;4997158;28;20078;-45
2022/01/14 02:23:43;;;;;;;32.28;13.43;;;;;;;0.12;77.29;102319.84;5000710;28;20093;-52
2022/01/14 02:26:10;;;;;;;26.20;12.45;;;;;;;0.11;76.77;102323.16;5001591;28;20057;-50
2022/01/14 02:28:39;;;;;;;29.42;11.93;;;;;;;0.09;76.74;102327.25;5000837;28;21704;-54
2022/01/14 02:31:06;;;;;;;33.97;12.80;;;;;;;0.08;77.18;102333.13;5000252;28;20054;-54
2022/01/14 02:33:33;;;;;;;34.55;12.57;;;;;;;0.08;77.07;102335.66;5002808;28;20054;-50
2022/01/14 02:36:01;;;;;;;24.30;11.63;;;;;;;0.09;77.39;102338.34;5003560;28;20092;-50
2022/01/14 02:38:27;;;;;;;30.95;11.02;;;;;;;0.11;77.33;102339.31;4986442;28;20053;-51
2022/01/14 02:40:54;;;;;;;27.45;11.82;;;;;;;0.15;77.34;102340.47;5005057;28;20046;-53
2022/01/14 02:43:21;;;;;;;25.55;13.30;;;;;;;0.19;77.09;102336.47;5003176;28;20084;-50
2022/01/14 02:45:52;;;;;;;21.65;11.60;;;;;;;0.23;77.34;102339.41;5002685;28;20108;-55
2022/01/14 02:48:21;;;;;;;25.95;11.48;;;;;;;0.28;76.65;102338.84;5003704;28;20058;-52
2022/01/14 02:50:59;;;;;;;26.67;11.50;;;;;;;0.32;76.94;102333.22;5005404;28;20054;-48
2022/01/14 02:53:42;;;;;;;29.23;12.02;;;;;;;0.36;76.66;102332.69;5004768;28;20434;-59
2022/01/14 02:56:12;;;;;;;25.83;10.10;;;;;;;0.39;77.61;102320.16;5003922;28;20482;-49
2022/01/14 02:58:41;;;;;;;22.40;10.45;;;;;;;0.42;78.11;102320.41;5002972;28;20120;-54
2022/01/14 03:01:12;;;;;;;25.77;11.63;;;;;;;0.45;78.33;102315.53;4998277;28;20058;-50
2022/01/14 03:03:43;;;;;;;25.33;12.25;;;;;;;0.52;77.74;102316.88;5004625;28;20046;-50
2022/01/14 03:06:10;;;;;;;30.80;11.63;;;;;;;0.56;78.39;102318.00;5001649;28;21177;-50
2022/01/14 03:08:42;;;;;;;30.92;12.75;;;;;;;0.59;78.11;102320.78;5010227;28;20053;-50
2022/01/14 03:11:12;;;;;;;36.42;12.38;;;;;;;0.63;78.21;102325.34;4997769;28;20065;-54
2022/01/14 03:13:39;;;;;;;47.92;14.27;;;;;;;0.65;78.11;102318.69;5001298;28;20046;-53
2022/01/14 03:16:06;;;;;;;50.17;12.73;;;;;;;0.67;77.66;102319.69;5000705;28;20054;-50
2022/01/14 03:18:40;;;;;;;44.97;14.85;;;;;;;0.68;77.29;102318.94;5003365;28;20050;-49
2022/01/14 03:21:12;;;;;;;45.60;14.90;;;;;;;0.70;77.07;102321.56;5002992;28;20112;-51
2022/01/14 03:23:45;;;;;;;42.08;13.65;;;;;;;0.71;77.48;102319.13;5003562;28;20057;-54
2022/01/14 03:26:13;;;;;;;57.95;14.98;;;;;;;0.72;77.63;102314.94;5007817;28;20391;-51
2022/01/14 03:28:42;;;;;;;47.97;13.52;;;;;;;0.72;77.40;102315.84;5003551;28;20045;-54
2022/01/14 03:31:10;;;;;;;51.33;14.98;;;;;;;0.74;77.70;102324.47;5002369;28;20045;-54
2022/01/14 03:33:37;;;;;;;38.90;12.20;;;;;;;0.74;77.32;102323.56;5003449;28;20391;-52
2022/01/14 03:36:05;;;;;;;40.78;12.20;;;;;;;0.74;77.23;102324.47;5007811;28;20073;-47
2022/01/14 03:38:32;;;;;;;34.15;13.15;;;;;;;0.74;77.78;102311.72;5010087;28;20100;-47
2022/01/14 03:40:59;;;;;;;42.67;12.82;;;;;;;0.73;77.17;102312.50;5005988;28;20054;-51
2022/01/14 03:43:26;;;;;;;36.25;13.15;;;;;;;0.72;77.05;102310.72;5003058;28;20054;-50
2022/01/14 03:45:52;;;;;;;24.80;10.52;;;;;;;0.70;77.66;102302.06;5003673;28;20073;-50
2022/01/14 03:48:19;;;;;;;31.58;11.02;;;;;;;0.69;77.81;102305.41;5005373;28;20056;-49
2022/01/14 03:50:46;;;;;;;36.58;9.77;;;;;;;0.68;77.18;102303.63;5005944;28;20522;-52
2022/01/14 03:53:13;;;;;;;31.05;10.88;;;;;;;0.66;76.73;102310.25;5005971;28;20155;-46
2022/01/14 03:55:42;;;;;;;44.40;10.75;;;;;;;0.65;76.94;102303.41;5007842;28;20045;-53
2022/01/14 03:58:28;;;;;;;44.20;10.13;;;;;;;0.64;77.04;102299.03;4999990;28;20667;-50
2022/01/14 04:00:55;;;;;;;28.75;11.25;;;;;;;0.64;77.49;102292.28;5005675;28;20516;-54
2022/01/14 04:03:22;;;;;;;31.52;9.25;;;;;;;0.64;77.39;102296.50;5007740;28;20045;-51
2022/01/14 04:05:49;;;;;;;57.25;11.35;;;;;;;0.63;77.70;102297.28;5005224;28;20119;-54
2022/01/14 04:08:15;;;;;;;36.03;10.02;;;;;;;0.63;77.28;102290.53;5006948;28;20042;-51
2022/01/14 04:10:42;;;;;;;27.63;8.50;;;;;;;0.62;77.66;102287.84;5005122;28;20439;-48
2022/01/14 04:13:16;;;;;;;25.08;9.70;;;;;;;0.62;77.39;102285.31;5003826;28;20065;-60
2022/01/14 04:15:46;;;;;;;32.25;10.02;;;;;;;0.61;77.30;102286.09;5002102;28;20049;-49
2022/01/14 04:18:16;;;;;;;34.17;8.05;;;;;;;0.63;77.43;102289.63;5005923;28;21240;-56
2022/01/14 04:20:48;;;;;;;31.90;9.60;;;;;;;0.62;77.28;102282.75;5004238;28;20459;-48
2022/01/14 04:23:18;;;;;;;22.77;10.40;;;;;;;0.62;77.01;102275.09;5001294;28;20049;-55
2022/01/14 04:25:47;;;;;;;;;;;;;;;0.58;77.28;102280.75;5009444;28;20433;-52
2022/01/14 04:28:14;;;;;;;21.80;8.68;;;;;;;0.59;77.18;102287.63;4997039;28;19967;-48
2022/01/14 04:30:40;;;;;;;29.00;10.63;;;;;;;0.57;77.33;102279.00;5006041;28;20042;-51
2022/01/14 04:33:07;;;;;;;24.50;10.20;;;;;;;0.58;76.73;102280.75;5004467;28;20117;-54
2022/01/14 04:35:34;;;;;;;22.90;9.68;;;;;;;0.58;77.42;102275.66;5006845;28;20053;-55
2022/01/14 04:38:01;;;;;;;20.92;10.13;;;;;;;0.56;77.08;102278.09;5006933;28;20391;-53
2022/01/14 04:40:28;;;;;;;24.63;10.27;;;;;;;0.56;77.05;102277.19;5001666;28;20054;-56
2022/01/14 04:42:56;;;;;;;25.15;10.25;;;;;;;0.53;76.84;102267.66;5007333;28;20054;-53
2022/01/14 04:45:54;;;;;;;28.55;9.35;;;;;;;0.48;77.47;102269.84;5001750;28;20320;-53
2022/01/14 04:48:11;;;;;;;20.10;9.38;;;;;;;0.45;77.49;102258.53;5003334;28;20128;-51
2022/01/14 04:50:38;;;;;;;25.45;9.98;;;;;;;0.44;76.67;102267.84;4999401;28;20053;-52
2022/01/14 04:53:08;;;;;;;22.38;10.13;;;;;;;0.41;77.17;102267.66;5001912;28;20104;-49
2022/01/14 04:55:35;;;;;;;;;;;;;;;0.33;77.05;102264.50;5001358;28;20050;-51
2022/01/14 04:58:02;;;;;;;25.13;8.60;;;;;;;0.32;77.13;102261.84;5003418;28;19925;-53
2022/01/14 05:00:28;;;;;;;19.38;10.30;;;;;;;0.30;77.53;102255.75;5002125;28;20046;-53
2022/01/14 05:02:55;;;;;;;16.88;8.40;;;;;;;0.29;77.65;102256.50;5004734;28;20058;-55
2022/01/14 05:05:25;;;;;;;25.65;11.27;;;;;;;0.28;76.86;102259.84;5005704;28;20073;-52
2022/01/14 05:07:52;;;;;;;26.45;10.45;;;;;;;0.25;77.36;102252.84;5004413;28;20391;-55
2022/01/14 05:10:34;;;;;;;28.17;9.82;;;;;;;0.24;77.20;102264.69;5003007;28;20050;-54
2022/01/14 05:13:01;;;;;;;29.42;10.98;;;;;;;0.22;76.86;102255.16;5005470;28;20104;-56
2022/01/14 05:15:28;;;;;;;19.75;9.20;;;;;;;0.22;77.05;102261.16;5001198;28;20045;-50
2022/01/14 05:17:55;;;;;;;27.05;9.18;;;;;;;0.20;77.33;102260.13;5005605;28;20063;-48
2022/01/14 05:20:22;;;;;;;22.95;9.25;;;;;;;0.20;77.08;102267.78;5003597;28;20489;-57
2022/01/14 05:22:48;;;;;;;18.48;9.68;;;;;;;0.20;77.52;102262.69;5003070;28;20046;-52
2022/01/14 05:25:15;;;;;;;20.70;8.93;;;;;;;0.18;76.87;102259.16;5000764;28;20041;-49
2022/01/14 05:27:43;;;;;;;22.80;8.40;;;;;;;0.17;76.99;102265.00;5004877;28;20053;-50
2022/01/14 05:30:12;;;;;;;31.77;8.57;;;;;;;0.13;77.32;102260.44;5005958;28;20122;-53
2022/01/14 05:32:46;;;;;;;22.27;9.45;;;;;;;0.12;77.57;102258.69;5001626;28;20065;-55
2022/01/14 05:35:16;;;;;;;26.02;8.85;;;;;;;0.10;77.14;102250.03;4990041;28;20497;-54
2022/01/14 05:37:43;;;;;;;19.73;8.68;;;;;;;0.09;77.12;102248.25;5006282;28;20478;-57
2022/01/14 05:40:11;;;;;;;21.45;8.43;;;;;;;0.06;77.38;102248.91;5002278;28;20053;-51
2022/01/14 05:42:37;;;;;;;22.40;9.63;;;;;;;0.05;77.13;102253.88;5003782;28;20049;-57
2022/01/14 05:45:05;;;;;;;18.98;8.27;;;;;;;0.02;77.42;102251.09;5005786;28;20100;-53
2022/01/14 05:47:32;;;;;;;25.10;10.02;;;;;;;-0.01;77.03;102257.75;5005059;28;20054;-51
2022/01/14 05:49:58;;;;;;;21.90;10.32;;;;;;;-0.05;76.84;102240.44;5003032;28;20049;-53
2022/01/14 05:52:25;;;;;;;18.33;7.45;;;;;;;-0.08;76.88;102250.41;5007290;28;20391;-51
2022/01/14 05:54:53;;;;;;;22.90;9.73;;;;;;;-0.13;77.25;102244.94;5000078;28;20057;-50
2022/01/14 05:57:20;;;;;;;21.45;10.10;;;;;;;-0.14;77.46;102245.72;5005776;28;20092;-48
2022/01/14 05:59:48;;;;;;;22.05;9.98;;;;;;;-0.16;77.31;102251.47;5000857;28;20061;-53
2022/01/14 06:02:15;;;;;;;22.33;10.38;;;;;;;-0.19;76.83;102256.34;5000501;28;20061;-55
2022/01/14 06:04:43;;;;;;;22.67;9.40;;;;;;;-0.22;77.38;102251.00;5003848;28;20058;-52
2022/01/14 06:07:10;;;;;;;23.10;9.45;;;;;;;-0.27;76.66;102251.53;5002148;28;20518;-51
2022/01/14 06:09:37;;;;;;;23.48;9.15;;;;;;;-0.28;77.56;102251.41;5002921;28;20077;-51
2022/01/14 06:12:05;;;;;;;21.42;10.57;;;;;;;-0.31;77.49;102246.97;5003374;28;20352;-49
2022/01/14 06:14:31;;;;;;;28.38;9.77;;;;;;;-0.33;77.46;102245.97;5005926;28;20054;-52
2022/01/14 06:16:58;;;;;;;20.92;9.70;;;;;;;-0.33;77.39;102253.63;4999848;28;20050;-48
2022/01/14 06:19:27;;;;;;;20.25;10.20;;;;;;;-0.36;77.37;102248.28;5003552;28;20045;-50
2022/01/14 06:21:54;;;;;;;22.40;10.70;;;;;;;-0.37;76.86;102246.53;5002844;28;20050;-54
2022/01/14 06:24:20;;;;;;;19.40;10.00;;;;;;;-0.39;77.01;102253.13;5001661;28;20192;-52
2022/01/14 06:26:47;;;;;;;18.73;10.23;;;;;;;-0.41;77.43;102249.56;5003451;28;20045;-58
2022/01/14 06:29:17;;;;;;;23.48;10.32;;;;;;;-0.42;77.22;102252.88;5000729;28;20062;-49
2022/01/14 06:31:44;;;;;;;24.83;12.13;;;;;;;-0.45;77.19;102252.66;5005022;28;20046;-52
2022/01/14 06:34:11;;;;;;;23.08;10.10;;;;;;;-0.47;77.16;102255.06;5004117;28;20046;-51
2022/01/14 06:36:38;;;;;;;24.23;9.48;;;;;;;-0.48;77.20;102248.22;5001989;28;20501;-55
2022/01/14 06:39:05;;;;;;;22.58;9.85;;;;;;;-0.49;77.51;102245.53;5002701;28;20108;-51
2022/01/14 06:41:32;;;;;;;19.23;8.90;;;;;;;-0.50;77.33;102248.84;5001899;28;20115;-51
2022/01/14 06:43:59;;;;;;;23.60;10.13;;;;;;;-0.50;77.37;102251.41;5007005;28;20045;-53
2022/01/14 06:46:26;;;;;;;19.70;9.15;;;;;;;-0.51;77.04;102255.59;5003624;28;20042;-48
2022/01/14 06:48:52;;;;;;;19.38;8.55;;;;;;;-0.51;76.88;102250.50;5006529;28;20045;-47
2022/01/14 06:51:19;;;;;;;27.08;9.48;;;;;;;-0.49;77.30;102260.81;4996917;28;20111;-52
2022/01/14 06:53:46;;;;;;;21.05;10.00;;;;;;;-0.50;77.35;102254.84;4998328;28;20489;-52
2022/01/14 06:56:14;;;;;;;21.98;7.07;;;;;;;-0.50;76.80;102253.94;5002482;28;20421;-56
2022/01/14 06:58:41;;;;;;;19.98;9.07;;;;;;;-0.52;77.23;102257.28;5004607;28;20050;-48
2022/01/14 07:01:08;;;;;;;24.27;10.57;;;;;;;-0.52;77.32;102252.19;5007676;28;20123;-49
2022/01/14 07:03:35;;;;;;;23.88;9.82;;;;;;;-0.52;76.95;102251.28;5007252;28;20073;-54
2022/01/14 07:06:02;;;;;;;22.20;9.23;;;;;;;-0.54;77.46;102243.53;5007273;28;20501;-52
2022/01/14 07:08:29;;;;;;;21.30;8.98;;;;;;;-0.57;77.22;102248.38;5009509;28;20107;-55
2022/01/14 07:10:55;;;;;;;31.00;10.70;;;;;;;-0.59;77.22;102244.84;5007619;28;20072;-52
2022/01/14 07:13:22;;;;;;;19.20;9.38;;;;;;;-0.60;77.11;102248.16;5006053;28;20060;-47
2022/01/14 07:15:49;;;;;;;18.02;8.80;;;;;;;-0.60;77.25;102243.06;5006672;28;20152;-49
2022/01/14 07:18:16;;;;;;;21.05;8.82;;;;;;;-0.61;77.18;102236.16;5009957;28;20389;-45
2022/01/14 07:20:43;;;;;;;26.30;8.00;;;;;;;-0.61;77.37;102240.41;5007128;28;20437;-53
2022/01/14 07:23:09;;;;;;;23.00;9.70;;;;;;;-0.65;77.40;102224.88;5009434;28;20123;-54
2022/01/14 07:25:38;;;;;;;22.38;10.43;;;;;;;-0.68;77.21;102228.81;5005762;28;20108;-53
2022/01/14 07:28:05;;;;;;;24.27;9.23;;;;;;;-0.71;76.85;102226.06;5008262;28;20054;-55
2022/01/14 07:30:32;;;;;;;18.67;9.57;;;;;;;-0.71;76.71;102228.59;5009486;28;20053;-48
2022/01/14 07:32:59;;;;;;;34.78;14.10;;;;;;;-0.73;77.09;102231.03;5010126;28;20049;-51
2022/01/14 07:35:26;;;;;;;24.83;11.18;;;;;;;-0.73;77.01;102232.66;4992015;28;20116;-54
2022/01/14 07:37:52;;;;;;;23.38;10.30;;;;;;;-0.75;76.88;102231.69;4995039;28;20045;-49
2022/01/14 07:40:19;;;;;;;24.58;9.38;;;;;;;-0.76;77.29;102234.97;5006149;28;20100;-52
2022/01/14 07:42:46;;;;;;;23.80;11.30;;;;;;;-0.78;77.27;102227.22;5007301;28;20054;-53
2022/01/14 07:45:12;;;;;;;20.15;9.95;;;;;;;-0.80;76.99;102228.75;5007520;28;20057;-51
2022/01/14 07:47:39;;;;;;;19.77;9.35;;;;;;;-0.83;77.59;102223.41;5008336;28;20057;-49
2022/01/14 07:50:07;;;;;;;22.73;9.30;;;;;;;-0.84;77.26;102236.91;5007947;28;20065;-52
2022/01/14 07:52:33;;;;;;;22.27;10.00;;;;;;;-0.85;77.29;102230.94;5006965;28;20057;-52
2022/01/14 07:55:00;;;;;;;57.25;20.83;;;;;;;-0.87;77.25;102227.41;5007132;28;20498;-54
2022/01/14 07:57:27;;;;;;;43.15;17.92;;;;;;;-0.86;77.34;102224.06;5003335;28;20111;-50
2022/01/14 07:59:54;;;;;;;33.05;14.73;;;;;;;-0.86;77.13;102234.25;5002652;28;20062;-55
2022/01/14 08:02:21;;;;;;;31.33;13.40;;;;;;;-0.86;76.92;102234.25;5007288;28;20143;-50
2022/01/14 08:04:49;;;;;;;60.65;13.30;;;;;;;-0.86;76.97;102239.34;5004300;28;20054;-51
2022/01/14 08:07:21;;;;;;;42.65;13.38;;;;;;;-0.85;77.29;102236.03;5006948;28;20049;-47
2022/01/14 08:09:52;;;;;;;34.60;14.27;;;;;;;-0.85;77.08;102220.75;5004271;28;20077;-48
2022/01/14 08:12:18;;;;;;;37.30;14.27;;;;;;;-0.85;77.02;102230.94;5005420;28;20045;-49
2022/01/14 08:14:45;;;;;;;36.70;14.45;;;;;;;-0.84;77.04;102231.84;5004413;28;20493;-52
2022/01/14 08:17:15;;;;;;;38.85;15.45;;;;;;;-0.85;77.41;102230.94;5002692;28;20481;-51
2022/01/14 08:19:41;;;;;;;30.73;12.52;;;;;;;-0.85;77.14;102228.38;5004810;28;20116;-55
2022/01/14 08:22:08;;;;;;;33.97;11.73;;;;;;;-0.88;76.92;102224.72;5005650;28;20045;-47
2022/01/14 08:24:36;;;;;;;32.08;12.95;;;;;;;-0.88;76.76;102214.53;5001900;28;20054;-49
2022/01/14 08:27:06;;;;;;;31.30;14.45;;;;;;;-0.88;77.34;102212.88;5000619;28;20050;-51
2022/01/14 08:29:33;;;;;;;35.35;12.93;;;;;;;-0.87;76.78;102207.03;5005722;28;20510;-52
2022/01/14 08:32:00;;;;;;;55.38;24.10;;;;;;;-0.80;77.27;102213.50;4999333;28;20050;-50
2022/01/14 08:34:27;;;;;;;46.47;20.23;;;;;;;-0.76;77.28;102217.16;5125184;22;20055;-53
2022/01/14 08:36:54;;;;;;;22.40;9.82;;;;;;;-0.74;77.28;102223.25;4987973;28;20112;-51
2022/01/14 08:39:21;;;;;;;23.08;10.60;;;;;;;-0.71;77.27;102223.50;4999218;28;20049;-51
2022/01/14 08:41:48;;;;;;;28.73;9.68;;;;;;;-0.70;76.86;102235.47;5002581;28;20642;-50
2022/01/14 08:44:15;;;;;;;30.88;10.57;;;;;;;-0.72;76.63;102234.44;5002433;28;20045;-50
2022/01/14 08:46:52;;;;;;;21.95;9.80;;;;;;;-0.74;77.10;102238.53;4994343;28;20053;-51
2022/01/14 08:49:19;;;;;;;31.35;10.07;;;;;;;-0.74;77.01;102238.53;4989696;28;20512;-53
2022/01/14 08:51:47;;;;;;;36.78;12.90;;;;;;;-0.73;76.92;102241.19;5000162;28;20096;-50
2022/01/14 08:54:13;;;;;;;35.00;13.77;;;;;;;-0.69;76.66;102244.88;5003129;28;20104;-49
2022/01/14 08:56:40;;;;;;;38.63;13.07;;;;;;;-0.63;77.04;102227.53;5006999;28;20082;-50
2022/01/14 08:59:07;;;;;;;30.15;12.32;;;;;;;-0.58;77.03;102230.47;5003974;28;20139;-53
2022/01/14 09:01:35;;;;;;;40.03;14.65;;;;;;;-0.53;77.70;102230.00;5003683;28;20050;-49
2022/01/14 09:04:02;;;;;;;36.42;12.43;;;;;;;-0.44;76.72;102231.53;5001448;28;20046;-48
2022/01/14 09:06:29;;;;;;;30.20;14.15;;;;;;;-0.37;76.72;102226.16;4999384;28;20576;-53
2022/01/14 09:08:56;;;;;;;34.38;11.98;;;;;;;-0.31;76.74;102226.59;5005666;28;20042;-49
2022/01/14 09:11:23;;;;;;;28.63;13.45;;;;;;;-0.24;76.82;102219.44;4997531;28;20109;-55
2022/01/14 09:13:49;;;;;;;31.75;13.85;;;;;;;-0.14;77.00;102214.25;5005650;28;20054;-50
2022/01/14 09:16:20;;;;;;;43.28;13.35;;;;;;;-0.05;76.63;102224.28;4999172;28;20140;-52
2022/01/14 09:18:47;;;;;;;38.42;12.85;;;;;;;0.02;76.51;102228.16;5002022;28;20509;-54
2022/01/14 09:21:15;;;;;;;28.58;11.43;;;;;;;0.16;76.82;102235.19;5001788;28;20046;-54
2022/01/14 09:23:50;;;;;;;32.38;12.40;;;;;;;0.39;76.53;102238.59;5002127;28;20123;-56
2022/01/14 09:26:18;;;;;;;32.97;14.40;;;;;;;0.59;76.18;102236.63;5005371;28;20046;-49
2022/01/14 09:28:44;;;;;;;28.90;10.23;;;;;;;0.79;76.07;102240.63;5001329;28;20104;-50
2022/01/14 09:31:12;;;;;;;24.10;10.77;;;;;;;1.01;76.35;102243.06;5007291;28;20108;-57
2022/01/14 09:33:39;;;;;;;21.02;10.75;;;;;;;1.14;76.14;102244.84;5001048;28;20058;-51
2022/01/14 09:36:06;;;;;;;32.38;11.40;;;;;;;1.24;75.56;102236.16;4997249;28;20099;-51
2022/01/14 09:38:33;;;;;;;26.73;10.45;;;;;;;1.36;75.34;102232.72;5000779;28;20058;-50
2022/01/14 09:41:00;;;;;;;25.45;11.32;;;;;;;1.43;75.32;102229.81;4999655;28;20101;-49
2022/01/14 09:43:27;;;;;;;32.88;12.00;;;;;;;1.53;75.29;102226.22;5002218;28;20103;-51
2022/01/14 09:46:01;;;;;;;26.00;11.57;;;;;;;1.65;74.96;102216.84;5001648;28;20077;-48
2022/01/14 09:48:28;;;;;;;38.00;13.93;;;;;;;1.92;75.59;102218.63;4997940;28;20058;-53
2022/01/14 09:50:56;;;;;;;45.78;15.75;;;;;;;2.14;75.70;102225.19;5004510;28;20046;-53
2022/01/14 09:53:25;;;;;;;31.60;10.75;;;;;;;2.31;75.38;102227.22;4998840;28;20644;-50
2022/01/14 09:55:52;;;;;;;40.75;12.63;;;;;;;2.46;73.95;102221.31;5002275;28;20591;-53
2022/01/14 09:58:22;;;;;;;30.42;11.18;;;;;;;2.57;74.17;102225.47;5001641;28;20477;-53
2022/01/14 10:00:49;;;;;;;28.13;11.63;;;;;;;2.61;73.60;102229.13;4999975;28;20062;-54
2022/01/14 10:03:20;;;;;;;28.17;12.05;;;;;;;2.56;74.02;102231.38;5000512;28;20557;-57
2022/01/14 10:05:51;;;;;;;25.17;10.05;;;;;;;2.49;73.86;102239.44;5000150;28;20061;-52
2022/01/14 10:08:25;;;;;;;28.67;11.40;;;;;;;2.46;74.75;102243.47;5001273;28;20054;-49
2022/01/14 10:10:59;;;;;;;25.40;11.60;;;;;;;2.48;73.88;102253.03;4999206;28;20054;-56
2022/01/14 10:13:29;;;;;;;26.42;10.30;;;;;;;2.65;73.80;102250.69;4996845;28;20053;-53
2022/01/14 10:16:03;;;;;;;27.48;10.70;;;;;;;3.03;74.83;102249.72;5002178;28;20049;-53
2022/01/14 10:18:32;;;;;;;30.15;12.55;;;;;;;3.81;75.73;102243.34;5014568;28;20513;-54
2022/01/14 10:21:01;;;;;;;36.22;15.43;;;;;;;4.81;75.76;102239.72;5003286;28;20049;-52
2022/01/14 10:23:51;;;;;;;29.20;14.18;;;;;;;6.11;75.37;102244.91;4999681;28;20049;-56
2022/01/14 10:26:18;;;;;;;20.63;10.73;;;;;;;7.30;73.29;102241.13;4999311;28;20042;-53
2022/01/14 10:28:58;;;;;;;20.20;10.23;;;;;;;8.42;71.56;102239.97;5004188;28;20054;-48
2022/01/14 10:31:34;;;;;;;25.60;11.57;;;;;;;9.43;69.92;102245.63;4997417;28;20042;-46
2022/01/14 10:34:17;;;;;;;21.58;11.60;;;;;;;10.31;67.72;102248.69;5001213;28;20050;-56
2022/01/14 10:36:44;;;;;;;22.77;12.60;;;;;;;11.07;65.65;102242.50;5000028;28;20485;-48
2022/01/14 10:39:28;;;;;;;20.55;11.57;;;;;;;11.72;64.50;102244.34;5000235;28;20104;-55
2022/01/14 10:41:55;;;;;;;;;;;;;;;12.18;65.55;102233.47;5004882;28;20038;-57
2022/01/14 10:44:28;;;;;;;21.35;11.20;;;;;;;12.73;61.58;102233.06;4998515;28;20010;-57
2022/01/14 10:47:17;;;;;;;17.83;11.13;;;;;;;12.94;60.09;102231.81;5002147;28;20096;-50
2022/01/14 10:49:46;;;;;;;17.25;9.73;;;;;;;12.89;58.41;102234.31;4999829;28;20053;-52
2022/01/14 10:52:17;;;;;;;15.80;9.68;;;;;;;12.67;58.06;102240.75;5000850;28;20046;-54
2022/01/14 10:54:48;;;;;;;15.25;10.27;;;;;;;12.45;57.16;102242.81;5002858;28;20049;-51
2022/01/14 10:57:21;;;;;;;15.95;10.35;;;;;;;12.19;56.37;102243.03;4996922;28;20078;-50
2022/01/14 10:59:50;;;;;;;18.50;9.85;;;;;;;11.56;56.90;102238.72;5002107;28;20079;-53
2022/01/14 11:02:38;;;;;;;16.95;10.10;;;;;;;10.73;57.29;102239.69;4995100;28;20050;-53
2022/01/14 11:05:13;;;;;;;17.33;10.43;;;;;;;10.56;57.96;102231.38;5006634;28;20141;-55
2022/01/14 11:07:45;;;;;;;18.38;10.88;;;;;;;10.51;59.16;102232.13;5015632;28;20050;-54
2022/01/14 11:10:23;;;;;;;18.13;9.95;;;;;;;10.20;57.71;102231.06;5000720;28;20054;-55
2022/01/14 11:12:52;;;;;;;19.85;11.07;;;;;;;9.92;59.09;102224.94;5000381;28;20057;-49
2022/01/14 11:15:21;;;;;;;21.02;10.73;;;;;;;9.71;59.27;102215.59;5002112;28;20380;-52
2022/01/14 11:17:51;;;;;;;22.05;10.05;;;;;;;9.39;59.06;102203.25;4998642;28;20474;-54
2022/01/14 11:20:30;;;;;;;18.35;11.18;;;;;;;9.05;59.82;102211.44;5001431;28;20545;-55
2022/01/14 11:23:15;;;;;;;24.75;12.07;;;;;;;8.80;60.78;102202.72;4999184;28;20429;-52
2022/01/14 11:25:57;;;;;;;20.95;9.70;;;;;;;8.55;60.93;102188.84;4999545;28;20741;-51
2022/01/14 11:28:28;;;;;;;20.05;11.00;;;;;;;8.27;61.00;102182.53;5001565;28;20112;-50
2022/01/14 11:30:56;;;;;;;18.60;11.23;;;;;;;7.98;62.43;102181.34;4997018;28;20046;-52
2022/01/14 11:33:39;;;;;;;28.23;13.15;;;;;;;7.87;62.37;102177.41;4997432;28;20116;-53
2022/01/14 11:36:07;;;;;;;20.67;12.98;;;;;;;7.78;62.04;102182.19;5002054;28;20041;-61
2022/01/14 11:38:38;;;;;;;19.90;11.70;;;;;;;7.64;63.40;102179.91;4999451;28;20061;-54
2022/01/14 11:41:06;;;;;;;19.63;11.30;;;;;;;7.51;63.79;102177.59;5001711;28;20062;-56